Data for 02/03/2015

Time Sea-Level Adjusted Pressure Absolute Pressure Temperature Relative Humidity Dew Point   
(mb) (inHg) (mb) (inHg) (C) (F) (%) (C) (F)
00:05 1012 29.88 841 24.83 5.2 41.3 51 -4.1 24.7
00:10 1012 29.88 841 24.83 5.2 41.3 52 -3.8 25.2
00:15 1012 29.88 841 24.83 5.3 41.5 51 -4.2 24.5
00:20 1012 29.88 841 24.83 5.1 41.2 51 -4.2 24.4
00:25 1012 29.88 841 24.83 5.1 41.2 51 -4.1 24.7
00:30 1012 29.88 841 24.83 5 40.9 51 -4.2 24.4
00:35 1012 29.88 841 24.83 5.1 41.2 51 -4.3 24.3
00:40 1012 29.88 841 24.83 5.3 41.6 50 -4.2 24.5
00:45 1012 29.88 841 24.83 5.3 41.6 51 -3.9 25
00:50 1012 29.88 841 24.83 5 41 52 -4 24.8
00:55 1012 29.88 841 24.83 4.8 40.7 52 -4.3 24.3
01:00 1012 29.88 841 24.83 5.2 41.3 50 -4.3 24.3
01:05 1012 29.88 841 24.83 5.5 41.9 50 -4.2 24.5
01:10 1012 29.88 841 24.83 5.6 42 50 -4.1 24.7
01:15 1012 29.88 841 24.83 5.4 41.7 51 -3.9 25
01:20 1012 29.88 841 24.83 5.2 41.4 52 -4 24.9
01:25 1012 29.88 841 24.83 5.1 41.2 52 -3.8 25.1
01:30 1012 29.88 841 24.83 4.8 40.7 54 -3.8 25.2
01:35 1012 29.88 841 24.83 4.6 40.3 55 -3.7 25.3
01:40 1012 29.88 841 24.83 4.5 40 55 -3.8 25.1
01:45 1012 29.88 841 24.83 4.4 39.9 54 -4.1 24.5
01:50 1012 29.88 841 24.83 5 41 48 -5.1 22.8
01:55 1011 29.85 841 24.83 5.7 42.2 47 -4.9 23.3
02:00 1011 29.85 841 24.83 6 42.8 46 -4.7 23.5
02:05 1011 29.85 841 24.83 5.9 42.7 46 -4.7 23.5
02:10 1011 29.85 841 24.83 5.8 42.5 47 -4.7 23.6
02:15 1011 29.85 841 24.83 5.8 42.5 46 -4.8 23.4
02:20 1011 29.85 841 24.83 6.1 42.9 44 -5.2 22.7
02:25 1011 29.85 841 24.83 6.1 43 45 -5 23.1
02:30 1011 29.85 841 24.83 5.9 42.7 46 -4.8 23.4
02:35 1011 29.85 841 24.83 5.7 42.3 46 -5 22.9
02:40 1011 29.85 841 24.83 5.7 42.3 45 -5.1 22.7
02:45 1011 29.85 841 24.83 5.7 42.3 45 -5.3 22.5
02:50 1011 29.85 841 24.83 5.7 42.2 44 -5.6 22
02:55 1012 29.88 841 24.83 5.8 42.4 43 -5.7 21.7
03:00 1012 29.88 841 24.83 5.9 42.5 43 -5.6 21.9
03:05 1011 29.85 841 24.83 5.7 42.3 43 -6 21.2
03:10 1011 29.85 841 24.83 5.7 42.3 43 -6 21.2
03:15 1012 29.88 841 24.83 5.7 42.3 42 -6.3 20.7
03:20 1012 29.88 841 24.83 5.7 42.3 42 -6.1 21
03:25 1012 29.88 841 24.83 5.6 42.2 42 -6.3 20.6
03:30 1012 29.88 841 24.83 5.6 42.1 42 -6.3 20.7
03:35 1012 29.88 841 24.83 5.6 42.1 41 -6.7 19.9
03:40 1012 29.88 841 24.83 5.7 42.3 42 -6.2 20.8
03:45 1012 29.88 841 24.83 5.6 42.1 41 -6.7 20
03:50 1012 29.88 841 24.83 5.7 42.3 41 -6.4 20.5
03:55 1012 29.88 841 24.83 5.6 42.1 41 -6.6 20.1
04:00 1012 29.88 841 24.83 5.7 42.2 41 -6.5 20.3
04:05 1012 29.88 841 24.83 5.6 42.1 41 -6.6 20
04:10 1012 29.88 841 24.83 5.6 42 41 -6.6 20.1
04:15 1012 29.88 842 24.86 5.6 42 41 -6.5 20.3
04:20 1012 29.88 842 24.86 5.6 42 40 -6.8 19.7
04:25 1013 29.91 842 24.86 5.7 42.2 41 -6.6 20.2
04:30 1013 29.91 842 24.86 5.6 42.1 41 -6.7 19.9
04:35 1013 29.91 842 24.86 5.8 42.4 40 -6.8 19.7
04:40 1013 29.91 842 24.86 5.7 42.3 41 -6.6 20.2
04:45 1013 29.91 842 24.86 5.6 42 42 -6.3 20.6
04:50 1013 29.91 842 24.86 5.3 41.6 43 -6.3 20.7
04:55 1013 29.91 842 24.86 5.2 41.4 42 -6.5 20.2
05:00 1013 29.91 842 24.86 5.2 41.4 42 -6.5 20.3
05:05 1013 29.91 842 24.86 5.2 41.4 42 -6.6 20.2
05:10 1013 29.91 842 24.86 5.3 41.5 42 -6.6 20.1
05:15 1013 29.91 842 24.86 5.3 41.6 41 -6.9 19.6
05:20 1013 29.91 842 24.86 5.6 42 40 -6.9 19.5
05:25 1013 29.91 842 24.86 5.6 42 40 -6.9 19.6
05:30 1013 29.91 842 24.86 5.5 41.9 41 -6.7 20
05:35 1013 29.91 842 24.86 5.5 41.9 40 -7 19.3
05:40 1013 29.91 842 24.86 5.5 42 40 -7.1 19.3
05:45 1013 29.91 842 24.86 5.6 42.1 40 -7 19.5
05:50 1013 29.91 842 24.86 5.5 41.9 41 -6.8 19.8
05:55 1013 29.91 842 24.86 5.4 41.7 41 -6.8 19.8
06:00 1013 29.91 842 24.86 5.2 41.4 42 -6.7 20
06:05 1013 29.91 842 24.86 5.1 41.1 43 -6.5 20.3
06:10 1013 29.91 842 24.86 4.9 40.8 44 -6.2 20.8
06:15 1013 29.91 842 24.86 4.7 40.5 44 -6.4 20.5
06:20 1013 29.91 842 24.86 4.6 40.3 45 -6.2 20.8
06:25 1013 29.91 843 24.89 4.5 40.1 45 -6.3 20.6
06:30 1013 29.91 843 24.89 4.5 40.1 45 -6.4 20.5
06:35 1013 29.91 843 24.89 4.5 40.2 44 -6.6 20.2
06:40 1014 29.94 843 24.89 4.5 40.1 44 -6.6 20.2
06:45 1014 29.94 843 24.89 4.5 40.1 45 -6.5 20.3
06:50 1014 29.94 843 24.89 4.4 40 45 -6.5 20.4
06:55 1014 29.94 843 24.89 4.4 39.8 45 -6.5 20.3
07:00 1014 29.94 843 24.89 4.3 39.8 45 -6.4 20.4
07:05 1014 29.94 843 24.89 4.3 39.8 46 -6.4 20.5
07:10 1014 29.94 843 24.89 4.2 39.6 47 -6.2 20.8
07:15 1014 29.94 843 24.89 4.1 39.4 46 -6.5 20.3
07:20 1014 29.94 843 24.89 4.1 39.4 46 -6.5 20.2
07:25 1014 29.94 843 24.89 4.2 39.5 43 -7.2 19
07:30 1014 29.94 843 24.89 4.4 39.9 43 -7 19.4
07:35 1014 29.94 843 24.89 4.4 39.8 45 -6.6 20.1
07:40 1014 29.94 843 24.89 4.2 39.6 44 -7.1 19.2
07:45 1014 29.94 843 24.89 4.4 39.8 42 -7.4 18.7
07:50 1014 29.94 843 24.89 4.5 40.1 43 -7 19.3
07:55 1014 29.94 843 24.89 4.5 40.1 40 -7.9 17.7
08:00 1014 29.94 843 24.89 4.9 40.8 40 -7.8 18
08:05 1014 29.94 843 24.89 5 40.9 39 -7.7 18.1
08:10 1014 29.94 843 24.89 4.9 40.8 40 -7.7 18.2
08:15 1014 29.94 843 24.89 4.8 40.6 41 -7.3 18.8
08:20 1014 29.94 843 24.89 4.6 40.2 42 -7.3 18.9
08:25 1014 29.94 843 24.89 4.4 39.9 41 -7.7 18.1
08:30 1014 29.94 843 24.89 4.4 39.9 42 -7.5 18.4
08:35 1014 29.94 843 24.89 4.3 39.8 42 -7.4 18.7
08:40 1014 29.94 843 24.89 4.2 39.5 43 -7.3 18.8
08:45 1014 29.94 843 24.89 4.1 39.5 41 -7.9 17.7
08:50 1014 29.94 843 24.89 4.2 39.5 42 -7.6 18.2
08:55 1014 29.94 843 24.89 4.1 39.4 43 -7.2 19
09:00 1014 29.94 844 24.92 3.9 39.1 45 -7.1 19.3
09:05 1014 29.94 844 24.92 3.7 38.7 44 -7.4 18.6
09:10 1014 29.94 844 24.92 3.8 38.9 44 -7.4 18.7
09:15 1014 29.94 844 24.92 4 39.1 44 -7.3 18.9
09:20 1015 29.97 844 24.92 3.7 38.6 47 -6.5 20.3
09:25 1015 29.97 844 24.92 3.2 37.8 48 -6.7 20
09:30 1015 29.97 844 24.92 3.1 37.5 47 -7.1 19.3
09:35 1015 29.97 844 24.92 3.2 37.7 47 -6.9 19.5
09:40 1015 29.97 844 24.92 3.2 37.8 45 -7.6 18.3
09:45 1015 29.97 844 24.92 3.6 38.4 45 -7.2 19
09:50 1015 29.97 844 24.92 3.8 38.8 43 -7.8 18
09:55 1015 29.97 844 24.92 4.1 39.3 41 -8 17.6
10:00 1015 29.97 844 24.92 4.4 39.9 41 -7.9 17.9
10:05 1015 29.97 844 24.92 4.4 40 41 -7.8 17.9
10:10 1015 29.97 844 24.92 4.5 40.2 40 -8.1 17.5
10:15 1015 29.97 844 24.92 4.6 40.3 40 -8 17.6
10:20 1015 29.97 844 24.92 4.7 40.5 40 -7.9 17.8
10:25 1015 29.97 844 24.92 4.8 40.7 38 -8.2 17.3
10:30 1015 29.97 844 24.92 4.9 40.9 39 -8 17.6
10:35 1015 29.97 844 24.92 4.9 40.8 38 -8.1 17.4
10:40 1015 29.97 844 24.92 4.9 40.9 38 -8.2 17.3
10:45 1015 29.97 844 24.92 4.9 40.9 39 -8 17.6
10:50 1015 29.97 844 24.92 4.9 40.8 40 -7.5 18.4
10:55 1015 29.97 844 24.92 4.8 40.7 40 -7.7 18.2
11:00 1015 29.97 844 24.92 4.8 40.7 40 -7.7 18.1
11:05 1015 29.97 844 24.92 4.9 40.8 40 -7.6 18.4
11:10 1015 29.97 844 24.92 4.9 40.7 40 -7.5 18.5
11:15 1015 29.97 844 24.92 4.9 40.9 41 -7.2 19.1
11:20 1015 29.97 844 24.92 5 40.9 40 -7.5 18.5
11:25 1015 29.97 844 24.92 4.7 40.5 41 -7.6 18.4
11:30 1015 29.97 844 24.92 4.7 40.5 38 -8.3 17
11:35 1015 29.97 844 24.92 4.9 40.9 38 -8.1 17.5
11:40 1015 29.97 844 24.92 5.1 41.1 39 -7.8 18
11:45 1015 29.97 844 24.92 5.2 41.4 38 -8 17.6
11:50 1015 29.97 844 24.92 5.4 41.6 37 -8.1 17.5
11:55 1015 29.97 844 24.92 5.4 41.7 37 -8 17.6
12:00 1015 29.97 844 24.92 5.5 41.9 37 -7.9 17.7
12:05 1015 29.97 844 24.92 5.6 42.1 37 -7.9 17.8
12:10 1015 29.97 844 24.92 5.6 42.2 37 -8.1 17.4
12:15 1015 29.97 844 24.92 5.6 42.1 37 -8 17.6
12:20 1015 29.97 844 24.92 5.5 42 37 -8.1 17.4
12:25 1015 29.97 844 24.92 5.5 42 37 -8 17.7
12:30 1015 29.97 844 24.92 5.6 42 38 -7.8 18
12:35 1015 29.97 844 24.92 5.6 42.1 37 -8 17.6
12:40 1015 29.97 844 24.92 5.5 41.9 38 -7.8 18
12:45 1015 29.97 844 24.92 5.5 42 38 -7.7 18.2
12:50 1015 29.97 844 24.92 5.5 42 38 -7.7 18.1
12:55 1015 29.97 844 24.92 5.5 41.9 38 -7.6 18.3
13:00 1015 29.97 844 24.92 5.5 41.9 39 -7.4 18.6
13:05 1015 29.97 844 24.92 5.4 41.8 39 -7.5 18.5
13:10 1015 29.97 844 24.92 5.4 41.6 39 -7.6 18.3
13:15 1015 29.97 844 24.92 5.3 41.6 40 -7.4 18.7
13:20 1015 29.97 844 24.92 5.3 41.5 40 -7.1 19.2
13:25 1015 29.97 844 24.92 5.2 41.4 39 -7.7 18.2
13:30 1015 29.97 844 24.92 5.2 41.4 39 -7.5 18.5
13:35 1015 29.97 844 24.92 5.2 41.3 38 -8.2 17.3
13:40 1015 29.97 844 24.92 5.1 41.1 39 -7.8 18
13:45 1015 29.97 844 24.92 5.2 41.3 37 -8.2 17.2
13:50 1015 29.97 844 24.92 5.2 41.4 37 -8.3 17.1
13:55 1015 29.97 844 24.92 5.2 41.3 41 -6.9 19.6
14:00 1015 29.97 844 24.92 5.3 41.5 38 -8 17.5
14:05 1014 29.94 844 24.92 5.4 41.8 37 -8.1 17.5
14:10 1015 29.97 844 24.92 5.6 42 37 -7.9 17.8
14:15 1015 29.97 844 24.92 5.4 41.7 40 -7.2 19
14:20 1014 29.94 844 24.92 5.3 41.5 39 -7.6 18.3
14:25 1014 29.94 844 24.92 5.4 41.7 40 -7.1 19.2
14:30 1014 29.94 844 24.92 5.4 41.8 40 -7.1 19.2
14:35 1014 29.94 843 24.89 5.5 42 41 -6.6 20.1
14:40 1014 29.94 843 24.89 5.4 41.8 41 -6.9 19.6
14:45 1014 29.94 843 24.89 5.6 42.1 39 -7.4 18.7
14:50 1014 29.94 843 24.89 5.8 42.4 39 -7.1 19.2
14:55 1014 29.94 843 24.89 5.7 42.3 39 -7.1 19.2
15:00 1014 29.94 843 24.89 5.8 42.4 39 -7.2 19
15:05 1014 29.94 843 24.89 5.8 42.5 39 -7.2 19.1
15:10 1014 29.94 843 24.89 5.7 42.3 40 -6.8 19.7
15:15 1014 29.94 843 24.89 5.7 42.3 41 -6.7 20
15:20 1014 29.94 843 24.89 5.6 42.1 42 -6.4 20.5
15:25 1014 29.94 843 24.89 5.5 41.9 42 -6.4 20.5
15:30 1014 29.94 843 24.89 5.4 41.8 42 -6.3 20.7
15:35 1014 29.94 843 24.89 5.4 41.7 43 -6.1 20.9
15:40 1014 29.94 843 24.89 5.5 41.9 41 -6.6 20.1
15:45 1014 29.94 843 24.89 5.6 42 42 -6.4 20.5
15:50 1014 29.94 843 24.89 5.6 42.1 43 -6.1 21.1
15:55 1014 29.94 843 24.89 5.5 41.9 43 -6.2 20.8
16:00 1014 29.94 843 24.89 5.5 41.8 43 -6.1 21.1
16:05 1014 29.94 843 24.89 5.4 41.8 44 -5.9 21.4
16:10 1014 29.94 843 24.89 5.4 41.6 43 -6.2 20.9
16:15 1014 29.94 843 24.89 5.3 41.6 45 -5.7 21.8
16:20 1014 29.94 843 24.89 5.2 41.4 46 -5.6 22
16:25 1014 29.94 843 24.89 5.2 41.3 46 -5.4 22.3
16:30 1014 29.94 843 24.89 5.1 41.1 47 -5.3 22.4
16:35 1014 29.94 843 24.89 5.1 41.2 48 -5.1 22.9
16:40 1014 29.94 843 24.89 5 40.9 51 -4.4 24.1
16:45 1014 29.94 843 24.89 4.7 40.5 52 -4.2 24.4
16:50 1014 29.94 843 24.89 4.5 40.2 53 -4.2 24.5
16:55 1014 29.94 843 24.89 4.4 39.9 55 -3.8 25.1
17:00 1014 29.94 843 24.89 4.2 39.6 60 -2.9 26.9
17:05 1014 29.94 843 24.89 3.8 38.9 61 -3 26.7
17:10 1014 29.94 843 24.89 3.9 39 59 -3.3 26
17:15 1014 29.94 843 24.89 4 39.3 58 -3.5 25.6
17:20 1014 29.94 843 24.89 4.1 39.4 58 -3.4 25.9
17:25 1014 29.94 843 24.89 4 39.2 59 -3.2 26.2
17:30 1014 29.94 843 24.89 3.9 39 60 -3.1 26.5
17:35 1014 29.94 843 24.89 3.8 38.8 61 -3 26.5
17:40 1014 29.94 844 24.92 3.7 38.7 61 -3.1 26.4
17:45 1014 29.94 844 24.92 3.8 38.8 60 -3.2 26.3
17:50 1014 29.94 844 24.92 3.8 38.8 61 -3 26.5
17:55 1014 29.94 844 24.92 3.6 38.5 66 -2.2 28
18:00 1015 29.97 844 24.92 3.1 37.6 74 -1 30.1
18:05 1015 29.97 844 24.92 2.4 36.3 78 -1.1 30
18:10 1015 29.97 844 24.92 2.2 35.9 79 -1.1 30
18:15 1015 29.97 844 24.92 2 35.6 82 -0.8 30.6
18:20 1015 29.97 844 24.92 1.9 35.3 83 -0.8 30.6
18:25 1015 29.97 844 24.92 1.8 35.2 84 -0.7 30.7
18:30 1015 29.97 844 24.92 1.8 35.2 84 -0.7 30.8
18:35 1015 29.97 844 24.92 1.6 35 85 -0.6 31
18:40 1015 29.97 844 24.92 1.5 34.7 85 -0.7 30.8
18:45 1015 29.97 844 24.92 1.4 34.4 86 -0.7 30.7
18:50 1015 29.97 844 24.92 1.3 34.3 87 -0.6 30.9
18:55 1015 29.97 844 24.92 1.2 34.2 88 -0.5 31
19:00 1015 29.97 845 24.95 1.2 34.1 89 -0.5 31.1
19:05 1015 29.97 845 24.95 1.1 34 89 -0.5 31.1
19:10 1016 30 845 24.95 1 33.8 90 -0.5 31.1
19:15 1016 30 845 24.95 0.7 33.3 92 -0.5 31.1
19:20 1016 30 845 24.95 0.5 32.9 93 -0.6 31
19:25 1016 30 845 24.95 0.3 32.6 93 -0.6 30.8
19:30 1016 30 845 24.95 0.2 32.3 94 -0.7 30.7
19:35 1016 30 845 24.95 0.2 32.4 94 -0.6 30.9
19:40 1016 30 845 24.95 0.3 32.5 94 -0.6 31
19:45 1016 30 845 24.95 0.3 32.5 94 -0.6 31
19:50 1016 30 845 24.95 0.3 32.5 94 -0.6 30.9
19:55 1016 30 845 24.95 0.2 32.4 94 -0.6 30.9
20:00 1016 30 845 24.95 0.3 32.5 94 -0.6 30.9
20:05 1016 30 845 24.95 0.3 32.5 94 -0.6 31
20:10 1016 30 845 24.95 0.3 32.6 94 -0.5 31.1
20:15 1016 30 845 24.95 0.3 32.5 94 -0.5 31
20:20 1016 30 846 24.98 0.3 32.5 94 -0.6 31
20:25 1016 30 846 24.98 0.3 32.5 94 -0.6 30.9
20:30 1016 30 846 24.98 0.3 32.5 94 -0.6 31
20:35 1017 30.03 846 24.98 0.3 32.5 94 -0.6 31
20:40 1017 30.03 846 24.98 0.3 32.5 94 -0.6 30.9
20:45 1017 30.03 846 24.98 0.3 32.5 94 -0.6 30.9
20:50 1017 30.03 846 24.98 0.3 32.5 94 -0.6 30.9
20:55 1017 30.03 846 24.98 0.2 32.4 94 -0.6 30.9
21:00 1017 30.03 846 24.98 0.3 32.5 94 -0.6 30.9
21:05 1017 30.03 846 24.98 0.2 32.4 94 -0.7 30.8
21:10 1017 30.03 846 24.98 0.2 32.3 94 -0.7 30.7
21:15 1017 30.03 846 24.98 0.1 32.2 94 -0.8 30.6
21:20 1017 30.03 846 24.98 0.1 32.1 94 -0.8 30.5
21:25 1017 30.03 846 24.98 -0 32 94 -0.9 30.4
21:30 1017 30.03 846 24.98 -0.1 31.9 94 -0.9 30.3
21:35 1017 30.03 846 24.98 -0.1 31.7 94 -1 30.2
21:40 1017 30.03 846 24.98 -0.2 31.6 94 -1.1 30.1
21:45 1017 30.03 846 24.98 -0.3 31.5 94 -1.1 30
21:50 1017 30.03 846 24.98 -0.3 31.5 94 -1.1 30
21:55 1017 30.03 846 24.98 -0.3 31.5 94 -1.2 29.9
22:00 1017 30.03 846 24.98 -0.2 31.6 94 -1.1 30
22:05 1017 30.03 846 24.98 -0.2 31.6 94 -1.1 30
22:10 1017 30.03 847 25.01 -0.1 31.8 93 -1.1 30.1
22:15 1017 30.03 847 25.01 -0 31.9 93 -1 30.2
22:20 1017 30.03 847 25.01 0.1 32.1 93 -1 30.3
22:25 1018 30.06 847 25.01 0.1 32.2 93 -1 30.3
22:30 1018 30.06 847 25.01 0.1 32.2 92 -1 30.2
22:35 1018 30.06 847 25.01 0.1 32.2 92 -1 30.1
22:40 1018 30.06 847 25.01 0.1 32.1 93 -1 30.2
22:45 1018 30.06 847 25.01 0.1 32.1 93 -1 30.2
22:50 1018 30.06 847 25.01 -0.2 31.7 91 -1.4 29.5
22:55 1018 30.06 847 25.01 -1.3 29.6 90 -2.7 27.1
23:00 1018 30.06 847 25.01 -2.3 27.8 91 -3.6 25.5
23:05 1018 30.06 847 25.01 -2.8 26.9 92 -4 24.8
23:10 1018 30.06 847 25.01 -3.2 26.2 91 -4.4 24
23:15 1018 30.06 847 25.01 -3.5 25.7 92 -4.6 23.7
23:20 1018 30.06 847 25.01 -3.6 25.5 92 -4.8 23.4
23:25 1018 30.06 847 25.01 -3.7 25.3 92 -4.9 23.3
23:30 1018 30.06 847 25.01 -3.8 25.1 92 -5 23
23:35 1018 30.06 847 25.01 -4.1 24.7 92 -5.3 22.5
23:40 1018 30.06 847 25.01 -4.2 24.4 91 -5.4 22.2
23:45 1018 30.06 847 25.01 -4.4 24.1 91 -5.6 21.9
23:50 1018 30.06 847 25.01 -4.6 23.8 91 -5.8 21.6
23:55 1018 30.06 847 25.01 -4.7 23.6 92 -5.8 21.5
24:00 1018 30.06 847 25.01 -4.8 23.4 90 -6.1 21